Time;durP1;ratioP1;P1;durP2;ratioP2;P2;SDS_P1;SDS_P2;PMS_P1;PMS_P2;Temp;Humidity;BMP_temperature;BMP_pressure;BME280_temperature;BME280_humidity;BME280_pressure;Samples;Min_cycle;Max_cycle;Signal;HPM_P1;HPM_P2
2022/02/06 00:01:33;;;;;;;5.07;3.13;;;6.30;99.90;;;;;;5035530;28;20588;-59
2022/02/06 00:04:01;;;;;;;5.57;2.35;;;6.30;99.90;;;;;;5036447;28;20540;-60
2022/02/06 00:06:31;;;;;;;6.55;2.50;;;6.30;99.90;;;;;;5034331;28;20198;-59
2022/02/06 00:08:58;;;;;;;3.85;2.80;;;6.20;99.90;;;;;;5033545;28;20245;-60
2022/02/06 00:11:25;;;;;;;2.70;2.40;;;6.30;99.90;;;;;;5033443;28;20199;-59
2022/02/06 00:13:52;;;;;;;5.35;3.10;;;6.30;99.90;;;;;;5033578;28;20245;-59
2022/02/06 00:16:19;;;;;;;2.85;2.47;;;6.20;99.90;;;;;;5033617;28;20210;-60
2022/02/06 00:18:46;;;;;;;3.58;2.70;;;6.20;99.90;;;;;;5033173;28;20230;-60
2022/02/06 00:21:18;;;;;;;4.78;2.80;;;6.20;99.90;;;;;;5033855;28;20202;-60
2022/02/06 00:23:48;;;;;;;4.80;3.15;;;6.20;99.90;;;;;;5034218;28;20195;-59
2022/02/06 00:26:23;;;;;;;3.90;3.45;;;6.10;99.90;;;;;;5038025;28;20261;-59
2022/02/06 00:29:08;;;;;;;3.55;3.25;;;6.10;99.90;;;;;;5037271;28;20249;-59
2022/02/06 00:31:48;;;;;;;3.67;3.20;;;6.00;99.90;;;;;;5037622;28;20220;-59
2022/02/06 00:34:42;;;;;;;3.45;3.00;;;6.00;99.90;;;;;;5037510;28;20215;-59
2022/02/06 00:39:51;;;;;;;3.22;2.72;;;5.90;99.90;;;;;;5037935;28;20190;-60
2022/02/06 00:42:18;;;;;;;3.97;2.65;;;5.90;99.90;;;;;;5036861;28;20198;-59
2022/02/06 00:44:45;;;;;;;5.45;2.80;;;5.90;99.90;;;;;;5037223;28;20674;-60
2022/02/06 00:47:12;;;;;;;4.18;3.00;;;5.90;99.90;;;;;;5037602;28;20218;-58
2022/02/06 00:49:41;;;;;;;3.40;3.10;;;5.90;99.90;;;;;;5037110;28;20206;-59
2022/02/06 00:52:14;;;;;;;6.82;3.92;;;5.90;99.90;;;;;;5036772;28;20210;-59
2022/02/06 00:54:41;;;;;;;8.45;3.75;;;5.90;99.90;;;;;;5037013;28;20644;-60
2022/02/06 00:57:09;;;;;;;3.92;2.92;;;5.90;99.90;;;;;;5036967;28;20222;-59
2022/02/06 00:59:36;;;;;;;4.60;2.88;;;5.90;99.90;;;;;;5036460;28;20689;-59
2022/02/06 01:02:04;;;;;;;4.93;2.78;;;5.90;99.90;;;;;;5036776;28;20575;-60
2022/02/06 01:04:34;;;;;;;3.65;3.17;;;5.90;99.90;;;;;;5036958;28;20207;-59
2022/02/06 01:07:01;;;;;;;4.95;2.75;;;5.90;99.90;;;;;;5036920;28;20249;-59
2022/02/06 01:09:30;;;;;;;4.15;2.90;;;5.90;99.90;;;;;;5036590;28;20210;-59
2022/02/06 01:11:57;;;;;;;4.95;3.00;;;5.90;99.90;;;;;;5036187;28;20695;-59
2022/02/06 01:14:38;;;;;;;3.35;3.05;;;5.80;99.90;;;;;;5036371;28;20309;-58
2022/02/06 01:17:16;;;;;;;3.22;2.80;;;5.80;99.90;;;;;;5036490;28;20245;-60
2022/02/06 01:19:54;;;;;;;5.75;3.15;;;5.80;99.90;;;;;;5036287;28;20190;-59
2022/02/06 01:22:24;;;;;;;6.88;3.15;;;5.80;99.90;;;;;;5036472;28;20285;-59
2022/02/06 01:25:00;;;;;;;5.25;2.97;;;5.80;99.90;;;;;;5036240;28;20202;-59
2022/02/06 01:27:37;;;;;;;4.28;2.53;;;5.80;99.90;;;;;;5036130;28;20261;-60
2022/02/06 01:30:14;;;;;;;3.17;2.83;;;5.80;99.90;;;;;;5036691;28;20187;-60
2022/02/06 01:32:49;;;;;;;2.72;2.53;;;5.80;99.90;;;;;;5036100;28;20194;-59
2022/02/06 01:35:25;;;;;;;3.28;2.90;;;5.80;99.90;;;;;;5036148;28;20336;-60
2022/02/06 01:37:59;;;;;;;2.88;2.53;;;5.80;99.90;;;;;;5035725;28;20308;-59
2022/02/06 01:40:38;;;;;;;6.55;2.38;;;5.80;99.90;;;;;;5036174;28;20191;-59
2022/02/06 01:43:09;;;;;;;2.60;2.40;;;5.90;99.90;;;;;;5035727;28;20237;-60
2022/02/06 02:02:32;;;;;;;2.58;2.10;;;6.10;99.90;;;;;;5013897;28;20301;-59
2022/02/06 02:08:10;;;;;;;2.47;1.92;;;6.20;99.90;;;;;;5026319;28;20299;-59
2022/02/06 02:16:37;;;;;;;3.08;2.03;;;6.20;99.90;;;;;;5033276;28;20202;-60
2022/02/06 02:22:18;;;;;;;2.33;1.48;;;6.30;99.90;;;;;;5035733;28;20200;-59
2022/02/06 02:27:44;;;;;;;4.55;1.50;;;6.30;99.90;;;;;;5034924;28;20228;-58
2022/02/06 02:33:35;;;;;;;2.05;1.40;;;6.30;99.90;;;;;;5035207;28;20193;-60
2022/02/06 02:47:13;;;;;;;1.95;1.75;;;6.00;99.90;;;;;;5034515;28;20225;-60
2022/02/06 02:49:43;;;;;;;1.77;1.65;;;6.00;99.90;;;;;;5034217;28;20209;-59
2022/02/06 02:52:18;;;;;;;2.35;1.95;;;6.00;99.90;;;;;;5034634;28;20205;-59
2022/02/06 02:54:50;;;;;;;1.80;1.70;;;6.00;99.90;;;;;;5034460;28;20572;-60
2022/02/06 02:57:23;;;;;;;2.97;2.05;;;6.00;99.90;;;;;;5034397;28;20226;-60
2022/02/06 03:00:02;;;;;;;2.00;1.90;;;6.00;99.90;;;;;;5034711;28;20214;-60
2022/02/06 03:02:29;;;;;;;2.17;1.98;;;5.90;99.90;;;;;;5034368;28;20198;-59
2022/02/06 03:04:58;;;;;;;2.35;1.70;;;5.90;99.90;;;;;;5034932;28;20222;-59
2022/02/06 03:07:25;;;;;;;2.08;1.90;;;5.90;99.90;;;;;;5034914;28;20230;-59
2022/02/06 03:09:54;;;;;;;3.38;1.88;;;5.90;99.90;;;;;;5034524;28;20701;-59
2022/02/06 03:12:25;;;;;;;2.40;2.08;;;5.90;99.90;;;;;;5034346;28;20210;-60
2022/02/06 03:15:00;;;;;;;2.22;1.80;;;5.90;99.90;;;;;;5034312;28;20217;-59
2022/02/06 03:17:35;;;;;;;2.13;1.75;;;5.90;99.90;;;;;;5036719;28;20316;-59
2022/02/06 03:20:08;;;;;;;3.03;1.65;;;5.90;99.90;;;;;;5045584;28;20197;-60
2022/02/06 03:22:47;;;;;;;2.53;1.92;;;5.90;99.90;;;;;;5044161;28;20198;-60
2022/02/06 03:25:19;;;;;;;2.53;2.00;;;5.90;99.90;;;;;;5043519;28;20218;-60
2022/02/06 03:27:46;;;;;;;1.90;1.75;;;5.90;99.90;;;;;;5038739;28;20240;-59
2022/02/06 03:30:14;;;;;;;2.40;2.00;;;5.90;99.90;;;;;;5040575;28;20206;-60
2022/02/06 03:32:41;;;;;;;3.65;1.83;;;5.90;99.90;;;;;;5035841;28;20207;-60
2022/02/06 03:35:09;;;;;;;4.10;2.10;;;5.90;99.90;;;;;;5033708;28;20218;-60
2022/02/06 03:37:36;;;;;;;1.95;1.85;;;5.90;99.90;;;;;;5033707;28;20234;-59
2022/02/06 03:40:07;;;;;;;2.70;1.95;;;5.90;99.90;;;;;;5033667;28;20203;-60
2022/02/06 03:42:43;;;;;;;3.42;2.28;;;5.90;99.90;;;;;;5033780;28;20541;-60
2022/02/06 03:45:18;;;;;;;1.95;1.70;;;5.90;99.90;;;;;;5033471;28;20193;-59
2022/02/06 03:47:51;;;;;;;2.42;2.20;;;5.90;99.90;;;;;;5033399;28;20217;-60
2022/02/06 03:50:18;;;;;;;3.78;2.10;;;6.00;99.90;;;;;;5033437;28;20638;-60
2022/02/06 03:52:48;;;;;;;2.30;1.98;;;6.00;99.90;;;;;;5033613;28;20579;-60
2022/02/06 03:55:19;;;;;;;2.45;1.92;;;6.00;99.90;;;;;;5033336;28;20218;-59
2022/02/06 03:57:49;;;;;;;4.90;1.90;;;6.00;99.90;;;;;;5033566;28;20249;-59
2022/02/06 04:00:18;;;;;;;3.97;2.45;;;6.00;99.90;;;;;;5033262;28;20201;-59
2022/02/06 04:02:46;;;;;;;5.40;2.10;;;6.00;99.90;;;;;;5034360;28;20252;-60
2022/02/06 04:05:15;;;;;;;2.10;1.90;;;6.00;99.90;;;;;;5047807;28;20229;-60
2022/02/06 04:09:20;;;;;;;1.93;1.73;;;6.00;99.90;;;;;;5116279;27;1393547;-59
2022/02/06 04:11:51;;;;;;;3.05;2.47;;;6.00;99.90;;;;;;5132906;28;20501;-58
2022/02/06 04:14:24;;;;;;;2.63;2.40;;;6.00;99.90;;;;;;5131938;28;20640;-59
2022/02/06 04:16:54;;;;;;;3.45;2.50;;;6.00;99.90;;;;;;5132474;28;20217;-60
2022/02/06 04:19:24;;;;;;;2.65;1.92;;;6.00;99.90;;;;;;5114286;28;20233;-59
2022/02/06 04:21:51;;;;;;;2.70;2.00;;;6.00;99.90;;;;;;5111909;28;20196;-58
2022/02/06 04:24:20;;;;;;;2.70;2.50;;;6.00;99.90;;;;;;5111367;28;20204;-59
2022/02/06 04:26:56;;;;;;;2.80;2.60;;;6.00;99.90;;;;;;5111463;28;20206;-60
2022/02/06 04:29:24;;;;;;;4.75;2.58;;;6.00;99.90;;;;;;5111037;28;20199;-59
2022/02/06 04:31:51;;;;;;;1.83;1.73;;;6.00;99.90;;;;;;5111125;28;20616;-60
2022/02/06 04:34:22;;;;;;;2.83;2.55;;;6.00;99.90;;;;;;5110717;28;20200;-59
2022/02/06 04:36:56;;;;;;;2.75;2.33;;;6.00;99.90;;;;;;5110383;28;20643;-60
2022/02/06 04:42:19;;;;;;;5.03;2.17;;;6.10;99.90;;;;;;5099790;28;20345;-59
2022/02/06 05:15:27;;;;;;;2.00;1.67;;;6.20;99.90;;;;;;5112221;28;20196;-59
2022/02/06 05:21:05;;;;;;;2.40;2.20;;;6.20;99.90;;;;;;5099965;28;20183;-60
2022/02/06 05:23:51;;;;;;;2.88;2.20;;;6.20;99.90;;;;;;5100011;28;20660;-61
2022/02/06 05:29:17;;;;;;;2.45;1.98;;;6.20;99.90;;;;;;5096499;28;20301;-59
2022/02/06 05:31:57;;;;;;;2.10;1.95;;;6.30;99.90;;;;;;5096929;28;20571;-60
2022/02/06 05:34:24;;;;;;;2.30;2.10;;;6.30;99.90;;;;;;5096381;28;20180;-60
2022/02/06 05:36:51;;;;;;;2.55;2.30;;;6.30;99.90;;;;;;5096279;28;20200;-60
2022/02/06 05:39:18;;;;;;;2.45;2.20;;;6.40;99.90;;;;;;5095868;28;20212;-60
2022/02/06 05:41:46;;;;;;;2.38;2.20;;;6.40;99.90;;;;;;5095698;28;20200;-60
2022/02/06 05:44:14;;;;;;;2.40;2.30;;;6.40;99.90;;;;;;5095593;28;20207;-60
2022/02/06 05:46:42;;;;;;;2.67;2.25;;;6.40;99.90;;;;;;5095609;28;20200;-60
2022/02/06 05:49:11;;;;;;;3.20;2.20;;;6.40;99.90;;;;;;5095518;28;20233;-60
2022/02/06 05:51:38;;;;;;;3.58;2.10;;;6.40;99.90;;;;;;5095836;28;20288;-60
2022/02/06 05:54:06;;;;;;;2.15;2.05;;;6.50;99.90;;;;;;5096130;28;20543;-60
2022/02/06 05:56:34;;;;;;;2.75;2.53;;;6.50;99.90;;;;;;5095455;28;20197;-60
2022/02/06 05:59:01;;;;;;;3.08;2.05;;;6.50;99.90;;;;;;5095215;28;20199;-60
2022/02/06 06:01:30;;;;;;;3.17;2.45;;;6.50;99.90;;;;;;5095173;28;20296;-60
2022/02/06 06:03:57;;;;;;;3.00;2.67;;;6.50;99.90;;;;;;5095309;28;20196;-60
2022/02/06 06:06:24;;;;;;;3.20;2.60;;;6.50;99.90;;;;;;5095572;28;20200;-60
2022/02/06 06:08:51;;;;;;;2.70;2.50;;;6.50;99.90;;;;;;5095778;28;20801;-61
2022/02/06 06:11:19;;;;;;;2.83;2.53;;;6.50;99.90;;;;;;5095911;28;20211;-60
2022/02/06 06:13:46;;;;;;;3.25;2.72;;;6.40;99.90;;;;;;5095524;28;20204;-61
2022/02/06 06:16:13;;;;;;;2.63;2.42;;;6.50;99.90;;;;;;5095388;28;20321;-59
2022/02/06 06:18:42;;;;;;;8.05;2.80;;;6.50;99.90;;;;;;5095613;28;20212;-60
2022/02/06 06:21:11;;;;;;;4.20;2.80;;;6.50;99.90;;;;;;5095136;28;20287;-59
2022/02/06 06:23:42;;;;;;;2.50;2.30;;;6.50;99.90;;;;;;5096163;28;20210;-59
2022/02/06 06:26:12;;;;;;;2.47;2.28;;;6.50;99.90;;;;;;5095555;28;20262;-60
2022/02/06 06:28:39;;;;;;;3.45;2.55;;;6.40;99.90;;;;;;5095172;28;20224;-61
2022/02/06 06:31:06;;;;;;;3.08;2.78;;;6.40;99.90;;;;;;5094688;28;20208;-60
2022/02/06 06:33:33;;;;;;;3.20;2.33;;;6.40;99.90;;;;;;5095504;28;20197;-58
2022/02/06 06:36:03;;;;;;;2.72;2.53;;;6.40;99.90;;;;;;5104853;28;20204;-58
2022/02/06 06:38:32;;;;;;;4.35;2.30;;;6.40;99.90;;;;;;5106357;28;20224;-59
2022/02/06 06:40:59;;;;;;;2.30;2.17;;;6.40;99.90;;;;;;5108847;28;20230;-58
2022/02/06 06:43:26;;;;;;;2.35;2.15;;;6.40;99.90;;;;;;5105485;28;20204;-58
2022/02/06 06:45:54;;;;;;;3.83;2.20;;;6.40;99.90;;;;;;5106642;28;20200;-59
2022/02/06 06:48:21;;;;;;;2.33;2.13;;;6.50;99.90;;;;;;5097348;28;20254;-58
2022/02/06 06:50:48;;;;;;;2.65;2.45;;;6.40;99.90;;;;;;5094831;28;20283;-59
2022/02/06 06:53:17;;;;;;;3.45;2.05;;;6.40;99.90;;;;;;5094493;28;20200;-59
2022/02/06 06:55:49;;;;;;;2.67;2.28;;;6.50;99.90;;;;;;5095247;28;20286;-58
2022/02/06 06:58:23;;;;;;;2.25;2.03;;;6.50;99.90;;;;;;5094515;28;20224;-58
2022/02/06 07:00:57;;;;;;;1.98;1.88;;;6.50;99.90;;;;;;5094286;28;20192;-58
2022/02/06 07:03:25;;;;;;;2.03;1.92;;;6.50;99.90;;;;;;5102103;28;20211;-59
2022/02/06 07:05:52;;;;;;;3.80;1.85;;;6.50;99.90;;;;;;5102396;28;20214;-59
2022/02/06 07:08:21;;;;;;;2.58;2.05;;;6.50;99.90;;;;;;5097411;28;20235;-58
2022/02/06 07:10:49;;;;;;;3.83;2.28;;;6.60;99.90;;;;;;5097655;28;20203;-59
2022/02/06 07:13:17;;;;;;;3.10;2.45;;;6.60;99.90;;;;;;5096674;28;20207;-59
2022/02/06 07:15:44;;;;;;;2.30;2.20;;;6.60;99.90;;;;;;5095334;28;20211;-59
2022/02/06 07:18:12;;;;;;;2.50;2.10;;;6.60;99.90;;;;;;5094621;28;20213;-59
2022/02/06 07:20:39;;;;;;;1.80;1.70;;;6.60;99.90;;;;;;5094938;28;20208;-59
2022/02/06 07:23:09;;;;;;;2.00;1.90;;;6.60;99.90;;;;;;5093995;28;20207;-61
2022/02/06 07:25:40;;;;;;;2.03;1.92;;;6.60;99.90;;;;;;5094910;28;20306;-60
2022/02/06 07:28:15;;;;;;;1.95;1.85;;;6.70;99.90;;;;;;5094816;28;20220;-60
2022/02/06 07:30:43;;;;;;;1.70;1.60;;;6.70;99.90;;;;;;5094740;28;20188;-59
2022/02/06 07:33:11;;;;;;;2.28;2.15;;;6.70;99.90;;;;;;5094675;28;20200;-59
2022/02/06 07:35:38;;;;;;;2.30;2.20;;;6.70;99.90;;;;;;5094820;28;20250;-59
2022/02/06 07:38:06;;;;;;;2.40;2.10;;;6.80;99.90;;;;;;5094367;28;20565;-60
2022/02/06 07:40:33;;;;;;;1.88;1.77;;;6.70;99.90;;;;;;5094178;28;20204;-60
2022/02/06 07:43:02;;;;;;;3.40;2.05;;;6.80;99.90;;;;;;5093584;28;20204;-60
2022/02/06 07:45:31;;;;;;;1.80;1.70;;;6.80;99.90;;;;;;5093689;28;20591;-59
2022/02/06 07:47:58;;;;;;;2.40;2.20;;;6.80;99.90;;;;;;5093606;28;20215;-60
2022/02/06 07:50:25;;;;;;;2.13;1.92;;;6.80;99.90;;;;;;5094138;28;20200;-60
2022/02/06 07:52:52;;;;;;;1.73;1.63;;;6.80;99.90;;;;;;5093888;28;20204;-60
2022/02/06 07:55:20;;;;;;;2.50;2.30;;;6.80;99.90;;;;;;5093844;28;20205;-61
2022/02/06 07:57:47;;;;;;;2.30;2.10;;;6.80;99.90;;;;;;5093507;28;20565;-61
2022/02/06 08:00:17;;;;;;;2.45;1.92;;;6.80;99.90;;;;;;5093782;28;20200;-59
2022/02/06 08:02:44;;;;;;;1.90;1.80;;;6.80;99.90;;;;;;5094029;28;20204;-60
2022/02/06 08:05:11;;;;;;;2.45;2.25;;;6.80;99.90;;;;;;5095162;28;20227;-60
2022/02/06 08:07:39;;;;;;;2.83;2.25;;;6.90;99.90;;;;;;5093922;28;20240;-60
2022/02/06 08:10:08;;;;;;;2.63;1.85;;;6.90;99.90;;;;;;5094493;28;20258;-61
2022/02/06 08:12:43;;;;;;;1.83;1.70;;;6.90;99.90;;;;;;5093801;28;20281;-60
2022/02/06 08:15:11;;;;;;;2.20;2.00;;;6.80;99.90;;;;;;5093871;28;20192;-60
2022/02/06 08:17:40;;;;;;;2.40;2.20;;;6.90;99.90;;;;;;5093351;28;20220;-60
2022/02/06 08:20:12;;;;;;;1.88;1.77;;;6.90;99.90;;;;;;5093401;28;20664;-60
2022/02/06 08:22:41;;;;;;;1.80;1.70;;;6.90;99.90;;;;;;5093508;28;20180;-60
2022/02/06 08:25:10;;;;;;;2.00;1.58;;;6.90;99.90;;;;;;5093543;28;20200;-59
2022/02/06 08:27:37;;;;;;;1.85;1.75;;;6.90;99.90;;;;;;5093901;28;20223;-60
2022/02/06 08:30:04;;;;;;;2.08;1.90;;;6.90;99.90;;;;;;5093502;28;20224;-60
2022/02/06 08:32:33;;;;;;;1.90;1.80;;;7.00;99.90;;;;;;5094498;28;20196;-61
2022/02/06 08:35:01;;;;;;;1.75;1.65;;;7.10;99.90;;;;;;5094283;28;20668;-60
2022/02/06 08:37:28;;;;;;;1.52;1.42;;;7.20;99.90;;;;;;5093563;28;20216;-59
2022/02/06 08:39:55;;;;;;;2.63;1.88;;;7.20;99.90;;;;;;5093382;28;20660;-60
2022/02/06 08:42:23;;;;;;;1.83;1.73;;;7.30;99.90;;;;;;5093913;28;20683;-61
2022/02/06 08:44:50;;;;;;;2.13;1.70;;;7.30;99.90;;;;;;5092987;28;20206;-62
2022/02/06 08:47:18;;;;;;;1.80;1.70;;;7.30;99.90;;;;;;5093181;28;20223;-61
2022/02/06 08:49:46;;;;;;;2.00;1.90;;;7.40;99.90;;;;;;5093220;28;20220;-60
2022/02/06 08:52:15;;;;;;;1.88;1.70;;;7.40;99.90;;;;;;5093382;28;20200;-60
2022/02/06 08:54:44;;;;;;;1.95;1.85;;;7.40;99.90;;;;;;5094645;28;20201;-61
2022/02/06 08:57:20;;;;;;;1.65;1.50;;;7.50;99.90;;;;;;5096656;28;20272;-59
2022/02/06 08:59:47;;;;;;;1.80;1.70;;;7.60;99.90;;;;;;5096787;28;20237;-60
2022/02/06 09:02:14;;;;;;;2.53;2.33;;;7.60;99.90;;;;;;5096913;28;20256;-60
2022/02/06 09:04:41;;;;;;;2.30;1.95;;;7.50;99.90;;;;;;5096882;28;20235;-61
2022/02/06 09:07:09;;;;;;;1.75;1.65;;;7.50;99.90;;;;;;5096343;28;20726;-60
2022/02/06 09:09:42;;;;;;;2.97;2.10;;;7.50;99.90;;;;;;5096263;28;20227;-60
2022/02/06 09:12:11;;;;;;;1.70;1.60;;;7.50;99.90;;;;;;5096827;28;20223;-61
2022/02/06 09:14:38;;;;;;;1.60;1.30;;;7.50;99.90;;;;;;5097739;28;20201;-60
2022/02/06 09:17:06;;;;;;;3.05;2.00;;;7.60;99.90;;;;;;5103697;28;20216;-60
2022/02/06 09:19:36;;;;;;;1.60;1.50;;;7.60;99.90;;;;;;5103798;28;20196;-61
2022/02/06 09:22:04;;;;;;;1.98;1.88;;;7.60;99.90;;;;;;5102356;28;20637;-59
2022/02/06 09:24:31;;;;;;;2.65;1.80;;;7.70;99.90;;;;;;5103801;28;20208;-61
2022/02/06 09:27:00;;;;;;;1.67;1.58;;;7.70;99.90;;;;;;5108429;28;20224;-61
2022/02/06 09:29:27;;;;;;;1.63;1.52;;;7.80;99.90;;;;;;5109734;28;20272;-62
2022/02/06 09:31:54;;;;;;;1.88;1.77;;;7.80;99.90;;;;;;5108090;28;20211;-61
2022/02/06 09:36:48;;;;;;;1.80;1.70;;;7.80;99.90;;;;;;5099687;28;20223;-60
2022/02/06 09:39:16;;;;;;;1.40;1.27;;;7.80;99.90;;;;;;5097013;28;20200;-61
2022/02/06 09:41:46;;;;;;;1.30;1.20;;;7.90;99.90;;;;;;5096678;28;20295;-62
2022/02/06 09:44:16;;;;;;;1.55;1.40;;;7.80;99.90;;;;;;5095868;28;20664;-60
2022/02/06 09:46:46;;;;;;;1.42;1.33;;;7.90;99.90;;;;;;5096978;28;20196;-61
2022/02/06 09:49:15;;;;;;;3.08;1.52;;;7.90;99.90;;;;;;5098057;28;20205;-61
2022/02/06 09:51:44;;;;;;;1.30;1.20;;;7.80;99.90;;;;;;5101029;28;20240;-60
2022/02/06 09:54:12;;;;;;;1.50;1.40;;;7.80;99.90;;;;;;5100974;28;20205;-61
2022/02/06 09:56:43;;;;;;;1.20;1.10;;;7.70;99.90;;;;;;5096108;28;20730;-61
2022/02/06 09:59:18;;;;;;;2.75;1.30;;;7.60;99.90;;;;;;5095807;28;20177;-60
2022/02/06 10:01:48;;;;;;;2.33;1.27;;;7.60;99.90;;;;;;5095385;28;20230;-61
2022/02/06 10:04:20;;;;;;;1.60;1.50;;;7.50;99.90;;;;;;5095384;28;20582;-61
2022/02/06 10:06:56;;;;;;;1.75;1.30;;;7.50;99.90;;;;;;5095269;28;20663;-60
2022/02/06 10:09:31;;;;;;;2.10;1.70;;;7.50;99.90;;;;;;5095323;28;20227;-60
2022/02/06 10:11:59;;;;;;;1.65;1.50;;;7.50;99.90;;;;;;5095646;28;20180;-61
2022/02/06 10:14:26;;;;;;;1.25;1.15;;;7.40;99.90;;;;;;5095533;28;20694;-61
2022/02/06 10:16:54;;;;;;;2.00;1.80;;;7.40;99.90;;;;;;5096844;28;20204;-61
2022/02/06 10:19:21;;;;;;;2.17;1.98;;;7.40;99.90;;;;;;5095595;28;20204;-60
2022/02/06 10:21:49;;;;;;;1.50;1.40;;;7.40;99.90;;;;;;5095270;28;20220;-60
2022/02/06 10:24:25;;;;;;;1.50;1.40;;;7.40;99.90;;;;;;5096237;28;20207;-60
2022/02/06 10:27:16;;;;;;;1.63;1.10;;;7.40;99.90;;;;;;5097130;28;20291;-61
2022/02/06 10:29:44;;;;;;;1.50;0.98;;;7.40;99.90;;;;;;5095484;28;20216;-59
2022/02/06 10:32:17;;;;;;;2.08;1.60;;;7.40;99.90;;;;;;5095463;28;20273;-60
2022/02/06 10:34:46;;;;;;;0.80;0.80;;;7.40;99.90;;;;;;5096317;28;20181;-60
2022/02/06 10:37:16;;;;;;;1.70;1.30;;;7.40;99.90;;;;;;5095618;28;20220;-59
2022/02/06 10:39:56;;;;;;;2.10;1.40;;;7.40;99.90;;;;;;5094739;28;20664;-60
2022/02/06 10:42:24;;;;;;;1.40;1.00;;;7.40;99.90;;;;;;5094859;28;20195;-60
2022/02/06 10:45:11;;;;;;;1.15;1.05;;;7.40;99.90;;;;;;5095305;28;20204;-60
2022/02/06 10:47:41;;;;;;;1.00;0.90;;;7.40;99.90;;;;;;5095217;28;20220;-61
2022/02/06 10:50:10;;;;;;;1.10;1.00;;;7.40;99.90;;;;;;5094445;28;20235;-60
2022/02/06 10:52:38;;;;;;;1.20;1.10;;;7.40;99.90;;;;;;5094551;28;20204;-60
2022/02/06 10:55:06;;;;;;;1.00;0.90;;;7.40;99.90;;;;;;5094490;28;20621;-59
2022/02/06 10:57:35;;;;;;;0.73;0.73;;;7.40;99.90;;;;;;5094828;28;20303;-59
2022/02/06 11:00:03;;;;;;;1.10;0.85;;;7.40;99.90;;;;;;5095204;28;20192;-58
2022/02/06 11:02:32;;;;;;;1.30;1.20;;;7.50;99.90;;;;;;5122365;22;20220;-56
2022/02/06 11:05:07;;;;;;;1.33;0.90;;;7.50;99.90;;;;;;5074684;28;20235;-56
2022/02/06 11:07:34;;;;;;;0.82;0.70;;;7.50;99.90;;;;;;5075525;28;20234;-56
2022/02/06 11:10:10;;;;;;;0.80;0.73;;;7.50;99.90;;;;;;5074432;28;20602;-55
2022/02/06 11:12:37;;;;;;;2.25;0.90;;;7.50;99.90;;;;;;5082649;28;20228;-56
2022/02/06 11:15:20;;;;;;;1.20;0.70;;;7.50;99.90;;;;;;5095244;28;20600;-56
2022/02/06 11:18:12;;;;;;;0.70;0.60;;;7.60;99.90;;;;;;5093901;28;20634;-56
2022/02/06 11:20:54;;;;;;;1.08;0.68;;;7.60;99.90;;;;;;5094318;28;20195;-55
2022/02/06 11:23:21;;;;;;;0.80;0.80;;;7.50;99.90;;;;;;5094265;28;20696;-57
2022/02/06 11:25:50;;;;;;;0.60;0.57;;;7.50;99.90;;;;;;5094833;28;20694;-56
2022/02/06 11:28:18;;;;;;;0.80;0.80;;;7.50;99.90;;;;;;5093983;28;20699;-56
2022/02/06 11:30:45;;;;;;;0.80;0.80;;;7.50;99.90;;;;;;5094393;28;20223;-55
2022/02/06 11:33:13;;;;;;;1.50;0.70;;;7.50;99.90;;;;;;5095543;28;20216;-56
2022/02/06 11:35:44;;;;;;;3.17;0.98;;;7.50;99.90;;;;;;5094229;28;20253;-57
2022/02/06 11:44:21;;;;;;;0.70;0.70;;;7.40;99.90;;;;;;5095643;28;20247;-57
2022/02/06 11:47:05;;;;;;;0.60;0.60;;;7.40;99.90;;;;;;5095245;28;20196;-60
2022/02/06 11:49:37;;;;;;;0.80;0.80;;;7.40;99.90;;;;;;5095954;28;20228;-57
2022/02/06 11:52:06;;;;;;;0.85;0.70;;;7.40;99.90;;;;;;5095095;28;20220;-57
2022/02/06 11:54:34;;;;;;;0.70;0.70;;;7.30;99.90;;;;;;5094432;28;20235;-57
2022/02/06 11:57:24;;;;;;;0.80;0.80;;;7.30;99.90;;;;;;5094342;28;20204;-58
2022/02/06 12:00:16;;;;;;;2.05;0.95;;;7.30;99.90;;;;;;5094461;28;20180;-56
2022/02/06 12:02:46;;;;;;;0.75;0.75;;;7.20;99.90;;;;;;5094207;28;20224;-56
2022/02/06 12:05:14;;;;;;;0.50;0.43;;;7.20;99.90;;;;;;5094345;28;20668;-56
2022/02/06 12:08:10;;;;;;;1.23;0.82;;;7.20;99.90;;;;;;5094303;28;20569;-57
2022/02/06 12:11:17;;;;;;;0.80;0.80;;;7.10;99.90;;;;;;5095028;28;20309;-58
2022/02/06 12:13:45;;;;;;;0.80;0.60;;;7.10;99.90;;;;;;5093886;28;20223;-58
2022/02/06 12:16:38;;;;;;;1.10;1.00;;;7.10;99.90;;;;;;5093440;28;20261;-57
2022/02/06 12:19:25;;;;;;;0.98;0.80;;;7.00;99.90;;;;;;5093897;28;20184;-58
2022/02/06 12:21:52;;;;;;;1.33;1.00;;;7.00;99.90;;;;;;5096970;28;20683;-57
2022/02/06 12:24:41;;;;;;;1.20;0.50;;;6.90;99.90;;;;;;5093662;28;20208;-58
2022/02/06 12:27:21;;;;;;;1.42;0.68;;;6.90;99.90;;;;;;5093625;28;20185;-57
2022/02/06 12:29:52;;;;;;;0.70;0.60;;;6.80;99.90;;;;;;5095221;28;20223;-58
2022/02/06 12:32:30;;;;;;;1.17;0.50;;;6.80;99.90;;;;;;5097626;28;20735;-57
2022/02/06 12:37:43;;;;;;;0.90;0.90;;;6.80;99.90;;;;;;5098188;28;20187;-57
2022/02/06 12:40:13;;;;;;;0.63;0.63;;;6.70;99.90;;;;;;5097537;28;20547;-58
2022/02/06 12:42:42;;;;;;;0.60;0.50;;;6.70;99.90;;;;;;5097437;28;20234;-58
2022/02/06 12:45:11;;;;;;;0.70;0.50;;;6.70;99.90;;;;;;5096647;28;20207;-58
2022/02/06 12:47:44;;;;;;;0.65;0.60;;;6.60;99.90;;;;;;5096838;28;20197;-55
2022/02/06 12:50:17;;;;;;;0.77;0.60;;;6.60;99.90;;;;;;5097268;28;20200;-57
2022/02/06 12:52:45;;;;;;;0.88;0.88;;;6.60;99.90;;;;;;5097204;28;20590;-56
2022/02/06 12:55:14;;;;;;;1.85;0.60;;;6.60;99.90;;;;;;5097139;28;20680;-58
2022/02/06 12:57:48;;;;;;;0.77;0.60;;;6.50;99.90;;;;;;5096641;28;20200;-57
2022/02/06 13:00:31;;;;;;;1.15;0.70;;;6.50;99.90;;;;;;5097572;28;20614;-58
2022/02/06 13:03:25;;;;;;;0.60;0.50;;;6.40;99.90;;;;;;5096974;28;20224;-58
2022/02/06 13:05:55;;;;;;;0.80;0.80;;;6.40;99.90;;;;;;5096692;28;20181;-57
2022/02/06 13:08:22;;;;;;;0.88;0.65;;;6.30;99.90;;;;;;5096531;28;20622;-56
2022/02/06 13:10:53;;;;;;;0.55;0.55;;;6.30;99.90;;;;;;5096438;28;20247;-57
2022/02/06 13:13:25;;;;;;;0.70;0.60;;;6.30;99.90;;;;;;5096344;28;20311;-58
2022/02/06 13:16:10;;;;;;;0.70;0.50;;;6.20;99.90;;;;;;5096463;28;20602;-58
2022/02/06 13:21:37;;;;;;;0.80;0.73;;;6.20;99.90;;;;;;5092474;28;20184;-58
2022/02/06 13:24:13;;;;;;;0.82;0.65;;;6.20;99.90;;;;;;5096497;28;20195;-61
2022/02/06 13:26:53;;;;;;;0.70;0.70;;;6.20;99.90;;;;;;5096688;28;20188;-57
2022/02/06 13:29:32;;;;;;;1.23;0.60;;;6.20;99.90;;;;;;5096604;28;20188;-58
2022/02/06 13:32:15;;;;;;;0.50;0.47;;;6.20;99.90;;;;;;5098947;28;20258;-58
2022/02/06 13:34:55;;;;;;;0.70;0.60;;;6.10;99.90;;;;;;5095712;28;20181;-57
2022/02/06 13:37:30;;;;;;;0.73;0.70;;;6.10;99.90;;;;;;5096118;28;20189;-57
2022/02/06 13:40:07;;;;;;;0.70;0.60;;;6.10;99.90;;;;;;5095503;28;20180;-58
2022/02/06 13:42:39;;;;;;;0.85;0.85;;;6.10;99.90;;;;;;5095470;28;20219;-58
2022/02/06 13:45:10;;;;;;;0.60;0.60;;;6.10;99.90;;;;;;5095965;28;20189;-58
2022/02/06 13:47:38;;;;;;;0.80;0.80;;;6.10;99.90;;;;;;5095866;28;20188;-57
2022/02/06 13:50:08;;;;;;;0.77;0.70;;;6.00;99.90;;;;;;5095749;28;20232;-57
2022/02/06 13:52:42;;;;;;;0.88;0.70;;;6.00;99.90;;;;;;5095710;28;20250;-59
2022/02/06 13:55:11;;;;;;;0.90;0.80;;;6.00;99.90;;;;;;5095617;28;20192;-59
2022/02/06 13:57:40;;;;;;;1.75;0.80;;;6.00;99.90;;;;;;5095629;28;20211;-58
2022/02/06 14:00:12;;;;;;;1.20;0.73;;;5.90;99.90;;;;;;5095690;28;20254;-59
2022/02/06 14:02:51;;;;;;;1.13;0.50;;;5.90;99.90;;;;;;5095432;28;20232;-57
2022/02/06 14:05:21;;;;;;;0.90;0.68;;;5.90;99.90;;;;;;5095644;28;20196;-58
2022/02/06 14:08:01;;;;;;;0.77;0.50;;;5.80;99.90;;;;;;5095140;28;20205;-58
2022/02/06 14:10:39;;;;;;;0.50;0.50;;;5.80;99.90;;;;;;5095433;28;20244;-57
2022/02/06 14:13:20;;;;;;;0.80;0.80;;;5.70;99.90;;;;;;5095281;28;20620;-58
2022/02/06 14:15:47;;;;;;;0.77;0.70;;;5.70;99.90;;;;;;5094995;28;20196;-59
2022/02/06 14:18:14;;;;;;;0.50;0.50;;;5.60;99.90;;;;;;5095180;28;20196;-60
2022/02/06 14:20:42;;;;;;;1.38;0.60;;;5.60;99.90;;;;;;5095091;28;20197;-59
2022/02/06 14:23:18;;;;;;;1.42;0.90;;;5.50;99.90;;;;;;5101428;28;20226;-59
2022/02/06 14:25:46;;;;;;;0.70;0.50;;;5.40;99.90;;;;;;5095399;28;20234;-61
2022/02/06 14:28:20;;;;;;;0.93;0.82;;;5.20;99.90;;;;;;5095765;28;20211;-58
2022/02/06 14:30:48;;;;;;;1.63;0.90;;;5.10;99.90;;;;;;5095235;28;20220;-59
2022/02/06 14:33:23;;;;;;;1.00;1.00;;;4.90;99.90;;;;;;5095072;28;20224;-57
2022/02/06 14:35:54;;;;;;;1.42;0.80;;;4.80;99.90;;;;;;5094768;28;20180;-58
2022/02/06 14:38:29;;;;;;;0.80;0.70;;;4.70;99.90;;;;;;5094479;28;20228;-58
2022/02/06 14:41:20;;;;;;;0.60;0.50;;;4.60;99.90;;;;;;5095614;28;20747;-60
2022/02/06 14:43:56;;;;;;;1.17;0.75;;;4.50;99.90;;;;;;5094332;28;20345;-59
2022/02/06 14:46:23;;;;;;;0.70;0.70;;;4.50;99.90;;;;;;5095045;28;20224;-58
2022/02/06 14:48:50;;;;;;;1.85;1.40;;;4.40;99.90;;;;;;5098844;28;20196;-58
2022/02/06 14:51:19;;;;;;;1.85;0.90;;;4.40;99.90;;;;;;5094202;28;20220;-58
2022/02/06 14:53:46;;;;;;;1.15;0.73;;;4.40;99.90;;;;;;5094157;28;20239;-58
2022/02/06 14:56:14;;;;;;;1.80;1.13;;;4.40;99.90;;;;;;5094531;28;20572;-58
2022/02/06 14:58:41;;;;;;;0.70;0.63;;;4.50;99.90;;;;;;5094013;28;20204;-57
2022/02/06 15:01:11;;;;;;;1.42;0.70;;;4.50;99.90;;;;;;5094044;28;20206;-58
2022/02/06 15:03:38;;;;;;;0.52;0.50;;;4.50;99.90;;;;;;5093999;28;20271;-58